sensor_id;sensor_type;location;lat;lon;timestamp;temperature;humidity
37240;DHT22;23130;48.760;9.178;2022-11-30T00:01:50;5.50;99.90
37240;DHT22;23130;48.760;9.178;2022-11-30T00:04:16;5.50;99.90
37240;DHT22;23130;48.760;9.178;2022-11-30T00:06:42;5.50;99.90
37240;DHT22;23130;48.760;9.178;2022-11-30T00:09:07;5.50;99.90
37240;DHT22;23130;48.760;9.178;2022-11-30T00:11:33;5.50;99.90
37240;DHT22;23130;48.760;9.178;2022-11-30T00:13:58;5.50;99.90
37240;DHT22;23130;48.760;9.178;2022-11-30T00:16:24;5.50;99.90
37240;DHT22;23130;48.760;9.178;2022-11-30T00:18:51;5.50;99.90
37240;DHT22;23130;48.760;9.178;2022-11-30T00:21:17;5.50;99.90
37240;DHT22;23130;48.760;9.178;2022-11-30T00:23:45;5.50;99.90
37240;DHT22;23130;48.760;9.178;2022-11-30T00:26:16;5.50;99.90
37240;DHT22;23130;48.760;9.178;2022-11-30T00:28:42;5.50;99.90
37240;DHT22;23130;48.760;9.178;2022-11-30T00:31:12;5.40;99.90
37240;DHT22;23130;48.760;9.178;2022-11-30T00:33:38;5.50;99.90
37240;DHT22;23130;48.760;9.178;2022-11-30T00:36:15;5.50;99.90
37240;DHT22;23130;48.760;9.178;2022-11-30T00:38:41;5.50;99.90
37240;DHT22;23130;48.760;9.178;2022-11-30T00:41:07;5.50;99.90
37240;DHT22;23130;48.760;9.178;2022-11-30T00:43:32;5.50;99.90
37240;DHT22;23130;48.760;9.178;2022-11-30T00:45:58;5.50;99.90
37240;DHT22;23130;48.760;9.178;2022-11-30T00:48:24;5.40;99.90
37240;DHT22;23130;48.760;9.178;2022-11-30T00:50:50;5.40;99.90
37240;DHT22;23130;48.760;9.178;2022-11-30T00:53:16;5.40;99.90
37240;DHT22;23130;48.760;9.178;2022-11-30T00:55:42;5.40;99.90
37240;DHT22;23130;48.760;9.178;2022-11-30T00:58:08;5.50;99.90
37240;DHT22;23130;48.760;9.178;2022-11-30T01:00:34;5.50;99.90
37240;DHT22;23130;48.760;9.178;2022-11-30T01:03:00;5.50;99.90
37240;DHT22;23130;48.760;9.178;2022-11-30T01:05:27;5.40;99.90
37240;DHT22;23130;48.760;9.178;2022-11-30T01:07:53;5.40;99.90
37240;DHT22;23130;48.760;9.178;2022-11-30T01:10:19;5.40;99.90
37240;DHT22;23130;48.760;9.178;2022-11-30T01:12:45;5.40;99.90
37240;DHT22;23130;48.760;9.178;2022-11-30T01:15:10;5.40;99.90
37240;DHT22;23130;48.760;9.178;2022-11-30T01:17:36;5.50;99.90
37240;DHT22;23130;48.760;9.178;2022-11-30T01:20:02;5.50;99.90
37240;DHT22;23130;48.760;9.178;2022-11-30T01:22:28;5.40;99.90
37240;DHT22;23130;48.760;9.178;2022-11-30T01:24:53;5.40;99.90
37240;DHT22;23130;48.760;9.178;2022-11-30T01:27:19;5.40;99.90
37240;DHT22;23130;48.760;9.178;2022-11-30T01:29:44;5.40;99.90
37240;DHT22;23130;48.760;9.178;2022-11-30T01:32:10;5.40;99.90
37240;DHT22;23130;48.760;9.178;2022-11-30T01:34:35;5.40;99.90
37240;DHT22;23130;48.760;9.178;2022-11-30T01:37:01;5.40;99.90
37240;DHT22;23130;48.760;9.178;2022-11-30T01:39:26;5.40;99.90
37240;DHT22;23130;48.760;9.178;2022-11-30T01:41:53;5.40;99.90
37240;DHT22;23130;48.760;9.178;2022-11-30T01:47:10;5.40;99.90
37240;DHT22;23130;48.760;9.178;2022-11-30T01:49:40;5.30;99.90
37240;DHT22;23130;48.760;9.178;2022-11-30T01:52:35;5.40;99.90
37240;DHT22;23130;48.760;9.178;2022-11-30T01:58:08;5.40;99.90
37240;DHT22;23130;48.760;9.178;2022-11-30T02:00:36;5.40;99.90
37240;DHT22;23130;48.760;9.178;2022-11-30T02:03:02;5.40;99.90
37240;DHT22;23130;48.760;9.178;2022-11-30T02:05:30;5.40;99.90
37240;DHT22;23130;48.760;9.178;2022-11-30T02:07:57;5.40;99.90
37240;DHT22;23130;48.760;9.178;2022-11-30T02:10:29;5.40;99.90
37240;DHT22;23130;48.760;9.178;2022-11-30T02:15:56;5.40;99.90
37240;DHT22;23130;48.760;9.178;2022-11-30T02:27:12;5.40;99.90
37240;DHT22;23130;48.760;9.178;2022-11-30T02:30:27;5.40;99.90
37240;DHT22;23130;48.760;9.178;2022-11-30T02:32:58;5.40;99.90
37240;DHT22;23130;48.760;9.178;2022-11-30T02:35:29;5.30;99.90
37240;DHT22;23130;48.760;9.178;2022-11-30T02:37:56;5.30;99.90
37240;DHT22;23130;48.760;9.178;2022-11-30T02:40:23;5.40;99.90
37240;DHT22;23130;48.760;9.178;2022-11-30T02:42:51;5.30;99.90
37240;DHT22;23130;48.760;9.178;2022-11-30T02:45:22;5.40;99.90
37240;DHT22;23130;48.760;9.178;2022-11-30T02:48:10;5.30;99.90
37240;DHT22;23130;48.760;9.178;2022-11-30T02:50:49;5.30;99.90
37240;DHT22;23130;48.760;9.178;2022-11-30T02:53:17;5.40;99.90
37240;DHT22;23130;48.760;9.178;2022-11-30T02:55:43;5.30;99.90
37240;DHT22;23130;48.760;9.178;2022-11-30T02:58:09;5.30;99.90
37240;DHT22;23130;48.760;9.178;2022-11-30T03:00:35;5.30;99.90
37240;DHT22;23130;48.760;9.178;2022-11-30T03:03:00;5.40;99.90
37240;DHT22;23130;48.760;9.178;2022-11-30T03:05:26;5.40;99.90
37240;DHT22;23130;48.760;9.178;2022-11-30T03:07:51;5.30;99.90
37240;DHT22;23130;48.760;9.178;2022-11-30T03:10:17;5.30;99.90
37240;DHT22;23130;48.760;9.178;2022-11-30T03:12:43;5.30;99.90
37240;DHT22;23130;48.760;9.178;2022-11-30T03:15:08;5.30;99.90
37240;DHT22;23130;48.760;9.178;2022-11-30T03:17:34;5.30;99.90
37240;DHT22;23130;48.760;9.178;2022-11-30T03:20:00;5.30;99.90
37240;DHT22;23130;48.760;9.178;2022-11-30T03:22:25;5.30;99.90
37240;DHT22;23130;48.760;9.178;2022-11-30T03:24:51;5.30;99.90
37240;DHT22;23130;48.760;9.178;2022-11-30T03:27:16;5.30;99.90
37240;DHT22;23130;48.760;9.178;2022-11-30T03:29:42;5.40;99.90
37240;DHT22;23130;48.760;9.178;2022-11-30T03:32:07;5.30;99.90
37240;DHT22;23130;48.760;9.178;2022-11-30T03:34:33;5.30;99.90
37240;DHT22;23130;48.760;9.178;2022-11-30T03:36:58;5.30;99.90
37240;DHT22;23130;48.760;9.178;2022-11-30T03:39:24;5.30;99.90
37240;DHT22;23130;48.760;9.178;2022-11-30T03:41:50;5.40;99.90
37240;DHT22;23130;48.760;9.178;2022-11-30T03:44:16;5.30;99.90
37240;DHT22;23130;48.760;9.178;2022-11-30T03:46:41;5.30;99.90
37240;DHT22;23130;48.760;9.178;2022-11-30T03:49:07;5.30;99.90
37240;DHT22;23130;48.760;9.178;2022-11-30T03:51:33;5.30;99.90
37240;DHT22;23130;48.760;9.178;2022-11-30T03:53:58;5.30;99.90
37240;DHT22;23130;48.760;9.178;2022-11-30T03:56:24;5.30;99.90
37240;DHT22;23130;48.760;9.178;2022-11-30T03:58:50;5.30;99.90
37240;DHT22;23130;48.760;9.178;2022-11-30T04:01:19;5.30;99.90
37240;DHT22;23130;48.760;9.178;2022-11-30T04:03:47;5.30;99.90
37240;DHT22;23130;48.760;9.178;2022-11-30T04:06:13;5.30;99.90
37240;DHT22;23130;48.760;9.178;2022-11-30T04:08:39;5.30;99.90
37240;DHT22;23130;48.760;9.178;2022-11-30T04:11:06;5.30;99.90
37240;DHT22;23130;48.760;9.178;2022-11-30T04:13:33;5.30;99.90
37240;DHT22;23130;48.760;9.178;2022-11-30T04:15:59;5.30;99.90
37240;DHT22;23130;48.760;9.178;2022-11-30T04:18:27;5.30;99.90
37240;DHT22;23130;48.760;9.178;2022-11-30T04:20:54;5.30;99.90
37240;DHT22;23130;48.760;9.178;2022-11-30T04:23:20;5.30;99.90
37240;DHT22;23130;48.760;9.178;2022-11-30T04:25:46;5.30;99.90
37240;DHT22;23130;48.760;9.178;2022-11-30T04:28:13;5.30;99.90
37240;DHT22;23130;48.760;9.178;2022-11-30T04:30:40;5.30;99.90
37240;DHT22;23130;48.760;9.178;2022-11-30T04:33:05;5.30;99.90
37240;DHT22;23130;48.760;9.178;2022-11-30T04:35:32;5.30;99.90
37240;DHT22;23130;48.760;9.178;2022-11-30T04:37:59;5.30;99.90
37240;DHT22;23130;48.760;9.178;2022-11-30T04:40:25;5.30;99.90
37240;DHT22;23130;48.760;9.178;2022-11-30T04:42:51;5.30;99.90
37240;DHT22;23130;48.760;9.178;2022-11-30T04:45:16;5.30;99.90
37240;DHT22;23130;48.760;9.178;2022-11-30T04:47:42;5.30;99.90
37240;DHT22;23130;48.760;9.178;2022-11-30T04:50:08;5.30;99.90
37240;DHT22;23130;48.760;9.178;2022-11-30T04:52:34;5.30;99.90
37240;DHT22;23130;48.760;9.178;2022-11-30T04:55:00;5.30;99.90
37240;DHT22;23130;48.760;9.178;2022-11-30T04:57:26;5.30;99.90
37240;DHT22;23130;48.760;9.178;2022-11-30T04:59:51;5.30;99.90
37240;DHT22;23130;48.760;9.178;2022-11-30T05:02:17;5.30;99.90
37240;DHT22;23130;48.760;9.178;2022-11-30T05:04:43;5.30;99.90
37240;DHT22;23130;48.760;9.178;2022-11-30T05:07:08;5.30;99.90
37240;DHT22;23130;48.760;9.178;2022-11-30T05:09:34;5.30;99.90
37240;DHT22;23130;48.760;9.178;2022-11-30T05:12:00;5.30;99.90
37240;DHT22;23130;48.760;9.178;2022-11-30T05:14:25;5.30;99.90
37240;DHT22;23130;48.760;9.178;2022-11-30T05:16:51;5.30;99.90
37240;DHT22;23130;48.760;9.178;2022-11-30T05:19:17;5.30;99.90
37240;DHT22;23130;48.760;9.178;2022-11-30T05:21:43;5.30;99.90
37240;DHT22;23130;48.760;9.178;2022-11-30T05:24:09;5.30;99.90
37240;DHT22;23130;48.760;9.178;2022-11-30T05:26:35;5.30;99.90
37240;DHT22;23130;48.760;9.178;2022-11-30T05:29:02;5.30;99.90
37240;DHT22;23130;48.760;9.178;2022-11-30T05:31:28;5.30;99.90
37240;DHT22;23130;48.760;9.178;2022-11-30T05:33:53;5.30;99.90
37240;DHT22;23130;48.760;9.178;2022-11-30T05:36:19;5.30;99.90
37240;DHT22;23130;48.760;9.178;2022-11-30T05:38:45;5.30;99.90
37240;DHT22;23130;48.760;9.178;2022-11-30T05:41:11;5.30;99.90
37240;DHT22;23130;48.760;9.178;2022-11-30T05:43:37;5.30;99.90
37240;DHT22;23130;48.760;9.178;2022-11-30T05:46:04;5.30;99.90
37240;DHT22;23130;48.760;9.178;2022-11-30T05:48:30;5.30;99.90
37240;DHT22;23130;48.760;9.178;2022-11-30T05:51:14;5.40;99.90
37240;DHT22;23130;48.760;9.178;2022-11-30T05:53:41;5.30;99.90
37240;DHT22;23130;48.760;9.178;2022-11-30T05:56:09;5.40;99.90
37240;DHT22;23130;48.760;9.178;2022-11-30T05:58:35;5.30;99.90
37240;DHT22;23130;48.760;9.178;2022-11-30T06:01:01;5.40;99.90
37240;DHT22;23130;48.760;9.178;2022-11-30T06:03:28;5.40;99.90
37240;DHT22;23130;48.760;9.178;2022-11-30T06:05:54;5.30;99.90
37240;DHT22;23130;48.760;9.178;2022-11-30T06:08:19;5.30;99.90
37240;DHT22;23130;48.760;9.178;2022-11-30T06:10:45;5.30;99.90
37240;DHT22;23130;48.760;9.178;2022-11-30T06:13:11;5.30;99.90
37240;DHT22;23130;48.760;9.178;2022-11-30T06:15:38;5.40;99.90
37240;DHT22;23130;48.760;9.178;2022-11-30T06:18:04;5.40;99.90
37240;DHT22;23130;48.760;9.178;2022-11-30T06:20:30;5.40;99.90
37240;DHT22;23130;48.760;9.178;2022-11-30T06:22:56;5.40;99.90
37240;DHT22;23130;48.760;9.178;2022-11-30T06:25:26;5.40;99.90
37240;DHT22;23130;48.760;9.178;2022-11-30T06:27:52;5.40;99.90
37240;DHT22;23130;48.760;9.178;2022-11-30T06:30:18;5.40;99.90
37240;DHT22;23130;48.760;9.178;2022-11-30T06:32:48;5.40;99.90
37240;DHT22;23130;48.760;9.178;2022-11-30T06:35:15;5.40;99.90
37240;DHT22;23130;48.760;9.178;2022-11-30T06:37:41;5.40;99.90
37240;DHT22;23130;48.760;9.178;2022-11-30T06:40:08;5.40;99.90
37240;DHT22;23130;48.760;9.178;2022-11-30T06:42:35;5.40;99.90
37240;DHT22;23130;48.760;9.178;2022-11-30T06:45:00;5.40;99.90
37240;DHT22;23130;48.760;9.178;2022-11-30T06:47:26;5.40;99.90
37240;DHT22;23130;48.760;9.178;2022-11-30T06:49:53;5.30;99.90
37240;DHT22;23130;48.760;9.178;2022-11-30T06:52:18;5.40;99.90
37240;DHT22;23130;48.760;9.178;2022-11-30T06:54:44;5.40;99.90
37240;DHT22;23130;48.760;9.178;2022-11-30T06:57:10;5.40;99.90
37240;DHT22;23130;48.760;9.178;2022-11-30T06:59:35;5.40;99.90
37240;DHT22;23130;48.760;9.178;2022-11-30T07:02:02;5.40;99.90
37240;DHT22;23130;48.760;9.178;2022-11-30T07:04:28;5.40;99.90
37240;DHT22;23130;48.760;9.178;2022-11-30T07:06:53;5.40;99.90
37240;DHT22;23130;48.760;9.178;2022-11-30T07:09:19;5.40;99.90
37240;DHT22;23130;48.760;9.178;2022-11-30T07:11:45;5.40;99.90
37240;DHT22;23130;48.760;9.178;2022-11-30T07:14:11;5.40;99.90
37240;DHT22;23130;48.760;9.178;2022-11-30T07:16:36;5.50;99.90
37240;DHT22;23130;48.760;9.178;2022-11-30T07:19:02;5.50;99.90
37240;DHT22;23130;48.760;9.178;2022-11-30T07:21:28;5.50;99.90
37240;DHT22;23130;48.760;9.178;2022-11-30T07:23:53;5.50;99.90
37240;DHT22;23130;48.760;9.178;2022-11-30T07:26:37;5.50;99.90
37240;DHT22;23130;48.760;9.178;2022-11-30T07:29:03;5.50;99.90
37240;DHT22;23130;48.760;9.178;2022-11-30T07:31:31;5.60;99.90
37240;DHT22;23130;48.760;9.178;2022-11-30T07:34:06;5.50;99.90
37240;DHT22;23130;48.760;9.178;2022-11-30T07:36:33;5.50;99.90
37240;DHT22;23130;48.760;9.178;2022-11-30T07:38:59;5.50;99.90
37240;DHT22;23130;48.760;9.178;2022-11-30T07:41:27;5.60;99.90
37240;DHT22;23130;48.760;9.178;2022-11-30T07:43:53;5.60;99.90
37240;DHT22;23130;48.760;9.178;2022-11-30T07:46:19;5.60;99.90
37240;DHT22;23130;48.760;9.178;2022-11-30T07:48:45;5.60;99.90
37240;DHT22;23130;48.760;9.178;2022-11-30T07:51:15;5.60;99.90
37240;DHT22;23130;48.760;9.178;2022-11-30T07:53:41;5.60;99.90
37240;DHT22;23130;48.760;9.178;2022-11-30T07:56:09;5.70;99.90
37240;DHT22;23130;48.760;9.178;2022-11-30T07:58:36;5.70;99.90
37240;DHT22;23130;48.760;9.178;2022-11-30T08:01:07;5.80;99.90
37240;DHT22;23130;48.760;9.178;2022-11-30T08:03:35;5.80;99.90
37240;DHT22;23130;48.760;9.178;2022-11-30T08:06:02;5.90;99.90
37240;DHT22;23130;48.760;9.178;2022-11-30T08:08:33;6.00;99.90
37240;DHT22;23130;48.760;9.178;2022-11-30T08:11:00;6.00;99.90
37240;DHT22;23130;48.760;9.178;2022-11-30T08:13:26;6.00;99.90
37240;DHT22;23130;48.760;9.178;2022-11-30T08:15:52;6.00;99.90
37240;DHT22;23130;48.760;9.178;2022-11-30T08:18:18;6.00;99.90
37240;DHT22;23130;48.760;9.178;2022-11-30T08:20:44;6.00;99.90
37240;DHT22;23130;48.760;9.178;2022-11-30T08:23:10;6.10;99.90
37240;DHT22;23130;48.760;9.178;2022-11-30T08:25:36;6.20;99.90
37240;DHT22;23130;48.760;9.178;2022-11-30T08:28:03;6.30;99.90
37240;DHT22;23130;48.760;9.178;2022-11-30T08:30:28;6.40;99.90
37240;DHT22;23130;48.760;9.178;2022-11-30T08:32:55;6.60;99.90
37240;DHT22;23130;48.760;9.178;2022-11-30T08:35:20;6.60;99.90
37240;DHT22;23130;48.760;9.178;2022-11-30T08:37:46;6.60;99.90
37240;DHT22;23130;48.760;9.178;2022-11-30T08:40:11;6.60;99.90
37240;DHT22;23130;48.760;9.178;2022-11-30T08:42:37;6.50;99.90
37240;DHT22;23130;48.760;9.178;2022-11-30T08:45:03;6.50;99.90
37240;DHT22;23130;48.760;9.178;2022-11-30T08:47:29;6.60;99.90
37240;DHT22;23130;48.760;9.178;2022-11-30T08:49:55;6.60;99.90
37240;DHT22;23130;48.760;9.178;2022-11-30T08:52:21;6.60;99.90
37240;DHT22;23130;48.760;9.178;2022-11-30T08:54:47;6.60;99.90
37240;DHT22;23130;48.760;9.178;2022-11-30T08:57:18;6.60;99.90
37240;DHT22;23130;48.760;9.178;2022-11-30T08:59:44;6.60;99.90
37240;DHT22;23130;48.760;9.178;2022-11-30T09:02:12;6.60;99.90
37240;DHT22;23130;48.760;9.178;2022-11-30T09:04:41;6.60;99.90
37240;DHT22;23130;48.760;9.178;2022-11-30T09:07:07;6.50;99.90
37240;DHT22;23130;48.760;9.178;2022-11-30T09:09:34;6.50;99.90
37240;DHT22;23130;48.760;9.178;2022-11-30T09:12:00;6.50;99.90
37240;DHT22;23130;48.760;9.178;2022-11-30T09:14:25;6.50;99.90
37240;DHT22;23130;48.760;9.178;2022-11-30T09:16:52;6.60;99.90
37240;DHT22;23130;48.760;9.178;2022-11-30T09:19:18;6.70;99.90
37240;DHT22;23130;48.760;9.178;2022-11-30T09:21:43;6.80;99.90
37240;DHT22;23130;48.760;9.178;2022-11-30T09:24:09;6.90;99.90
37240;DHT22;23130;48.760;9.178;2022-11-30T09:26:34;6.90;99.90
37240;DHT22;23130;48.760;9.178;2022-11-30T09:29:00;7.00;99.90
37240;DHT22;23130;48.760;9.178;2022-11-30T09:31:26;7.00;99.90
37240;DHT22;23130;48.760;9.178;2022-11-30T09:33:54;7.00;99.90
37240;DHT22;23130;48.760;9.178;2022-11-30T09:36:21;7.00;99.90
37240;DHT22;23130;48.760;9.178;2022-11-30T09:38:48;7.10;99.90
37240;DHT22;23130;48.760;9.178;2022-11-30T09:49:30;6.90;99.90
37240;DHT22;23130;48.760;9.178;2022-11-30T09:52:00;6.80;99.90
37240;DHT22;23130;48.760;9.178;2022-11-30T09:54:37;6.90;99.90
37240;DHT22;23130;48.760;9.178;2022-11-30T09:57:30;6.90;99.90
37240;DHT22;23130;48.760;9.178;2022-11-30T10:00:09;7.00;99.90
37240;DHT22;23130;48.760;9.178;2022-11-30T10:02:37;7.10;99.90
37240;DHT22;23130;48.760;9.178;2022-11-30T10:05:15;7.20;99.90
37240;DHT22;23130;48.760;9.178;2022-11-30T10:24:50;7.70;99.90
37240;DHT22;23130;48.760;9.178;2022-11-30T10:27:44;7.70;99.90
37240;DHT22;23130;48.760;9.178;2022-11-30T10:30:15;7.80;99.90
37240;DHT22;23130;48.760;9.178;2022-11-30T10:32:44;7.70;99.90
37240;DHT22;23130;48.760;9.178;2022-11-30T10:35:36;7.70;99.90
37240;DHT22;23130;48.760;9.178;2022-11-30T10:38:30;7.60;99.90
37240;DHT22;23130;48.760;9.178;2022-11-30T10:42:03;7.40;99.90
37240;DHT22;23130;48.760;9.178;2022-11-30T10:44:05;7.40;99.90
37240;DHT22;23130;48.760;9.178;2022-11-30T10:46:37;7.30;99.90
37240;DHT22;23130;48.760;9.178;2022-11-30T10:49:07;7.20;99.90
37240;DHT22;23130;48.760;9.178;2022-11-30T10:51:38;7.10;99.90
37240;DHT22;23130;48.760;9.178;2022-11-30T10:54:14;7.10;99.90
37240;DHT22;23130;48.760;9.178;2022-11-30T10:56:40;7.10;99.90
37240;DHT22;23130;48.760;9.178;2022-11-30T10:59:59;7.00;99.90
37240;DHT22;23130;48.760;9.178;2022-11-30T11:02:33;7.00;99.90
37240;DHT22;23130;48.760;9.178;2022-11-30T11:10:36;6.60;99.90
37240;DHT22;23130;48.760;9.178;2022-11-30T11:13:16;6.60;99.90
37240;DHT22;23130;48.760;9.178;2022-11-30T11:15:57;6.60;99.90
37240;DHT22;23130;48.760;9.178;2022-11-30T11:18:25;6.60;99.90
37240;DHT22;23130;48.760;9.178;2022-11-30T11:23:32;6.70;99.90
37240;DHT22;23130;48.760;9.178;2022-11-30T11:25:58;6.70;99.90
37240;DHT22;23130;48.760;9.178;2022-11-30T11:28:24;6.70;99.90
37240;DHT22;23130;48.760;9.178;2022-11-30T11:30:52;6.70;99.90
37240;DHT22;23130;48.760;9.178;2022-11-30T11:33:28;6.80;99.90
37240;DHT22;23130;48.760;9.178;2022-11-30T11:38:51;6.90;99.90
37240;DHT22;23130;48.760;9.178;2022-11-30T11:41:24;7.00;99.90
37240;DHT22;23130;48.760;9.178;2022-11-30T11:43:57;7.10;99.90
37240;DHT22;23130;48.760;9.178;2022-11-30T11:46:23;7.10;99.90
37240;DHT22;23130;48.760;9.178;2022-11-30T11:49:04;7.10;99.90
37240;DHT22;23130;48.760;9.178;2022-11-30T11:51:38;7.10;99.90
37240;DHT22;23130;48.760;9.178;2022-11-30T11:54:23;7.10;99.90
37240;DHT22;23130;48.760;9.178;2022-11-30T11:56:52;7.10;99.90
37240;DHT22;23130;48.760;9.178;2022-11-30T12:02:44;7.10;99.90
37240;DHT22;23130;48.760;9.178;2022-11-30T12:08:40;7.20;99.90
37240;DHT22;23130;48.760;9.178;2022-11-30T12:11:09;7.20;99.90
37240;DHT22;23130;48.760;9.178;2022-11-30T12:13:38;7.20;99.90
37240;DHT22;23130;48.760;9.178;2022-11-30T12:35:18;7.00;99.90
37240;DHT22;23130;48.760;9.178;2022-11-30T12:43:46;6.90;99.90
37240;DHT22;23130;48.760;9.178;2022-11-30T12:58:12;6.80;99.90
37240;DHT22;23130;48.760;9.178;2022-11-30T13:01:17;6.80;99.90
37240;DHT22;23130;48.760;9.178;2022-11-30T13:06:33;6.70;99.90
37240;DHT22;23130;48.760;9.178;2022-11-30T13:09:17;6.70;99.90
37240;DHT22;23130;48.760;9.178;2022-11-30T13:11:52;6.60;99.90
37240;DHT22;23130;48.760;9.178;2022-11-30T13:14:22;6.50;99.90
37240;DHT22;23130;48.760;9.178;2022-11-30T13:17:00;6.50;99.90
37240;DHT22;23130;48.760;9.178;2022-11-30T13:22:44;6.40;99.90
37240;DHT22;23130;48.760;9.178;2022-11-30T13:25:24;6.30;99.90
37240;DHT22;23130;48.760;9.178;2022-11-30T13:30:43;6.20;99.90
37240;DHT22;23130;48.760;9.178;2022-11-30T13:35:59;6.20;99.90
37240;DHT22;23130;48.760;9.178;2022-11-30T13:38:27;6.20;99.90
37240;DHT22;23130;48.760;9.178;2022-11-30T13:41:02;6.20;99.90
37240;DHT22;23130;48.760;9.178;2022-11-30T13:43:39;6.10;99.90
37240;DHT22;23130;48.760;9.178;2022-11-30T13:46:27;6.10;99.90
37240;DHT22;23130;48.760;9.178;2022-11-30T13:49:18;6.00;99.90
37240;DHT22;23130;48.760;9.178;2022-11-30T13:51:45;6.10;99.90
37240;DHT22;23130;48.760;9.178;2022-11-30T13:57:02;6.10;99.90
37240;DHT22;23130;48.760;9.178;2022-11-30T13:59:32;6.10;99.90
37240;DHT22;23130;48.760;9.178;2022-11-30T14:02:49;6.10;99.90
37240;DHT22;23130;48.760;9.178;2022-11-30T14:05:21;6.10;99.90
37240;DHT22;23130;48.760;9.178;2022-11-30T14:10:26;6.10;99.90
37240;DHT22;23130;48.760;9.178;2022-11-30T14:26:10;6.10;99.90
37240;DHT22;23130;48.760;9.178;2022-11-30T14:28:52;6.10;99.90
37240;DHT22;23130;48.760;9.178;2022-11-30T14:31:24;6.10;99.90
37240;DHT22;23130;48.760;9.178;2022-11-30T14:36:37;6.10;99.90
37240;DHT22;23130;48.760;9.178;2022-11-30T14:39:03;6.00;99.90
37240;DHT22;23130;48.760;9.178;2022-11-30T14:41:30;6.00;99.90
37240;DHT22;23130;48.760;9.178;2022-11-30T14:44:12;6.00;99.90
37240;DHT22;23130;48.760;9.178;2022-11-30T14:46:38;6.00;99.90
37240;DHT22;23130;48.760;9.178;2022-11-30T14:49:26;6.00;99.90
37240;DHT22;23130;48.760;9.178;2022-11-30T14:51:52;6.00;99.90
37240;DHT22;23130;48.760;9.178;2022-11-30T14:57:25;5.90;99.90
37240;DHT22;23130;48.760;9.178;2022-11-30T14:59:53;5.90;99.90
37240;DHT22;23130;48.760;9.178;2022-11-30T15:02:31;6.00;99.90
37240;DHT22;23130;48.760;9.178;2022-11-30T15:05:00;5.90;99.90
37240;DHT22;23130;48.760;9.178;2022-11-30T15:07:27;5.90;99.90
37240;DHT22;23130;48.760;9.178;2022-11-30T15:10:03;5.90;99.90
37240;DHT22;23130;48.760;9.178;2022-11-30T15:12:30;5.90;99.90
37240;DHT22;23130;48.760;9.178;2022-11-30T15:15:26;5.90;99.90
37240;DHT22;23130;48.760;9.178;2022-11-30T15:18:11;5.90;99.90
37240;DHT22;23130;48.760;9.178;2022-11-30T15:20:43;5.90;99.90
37240;DHT22;23130;48.760;9.178;2022-11-30T15:23:12;5.90;99.90
37240;DHT22;23130;48.760;9.178;2022-11-30T15:25:44;5.90;99.90
37240;DHT22;23130;48.760;9.178;2022-11-30T15:28:16;5.80;99.90
37240;DHT22;23130;48.760;9.178;2022-11-30T15:30:45;5.70;99.90
37240;DHT22;23130;48.760;9.178;2022-11-30T15:33:22;5.70;99.90
37240;DHT22;23130;48.760;9.178;2022-11-30T15:35:52;5.70;99.90
37240;DHT22;23130;48.760;9.178;2022-11-30T15:38:24;5.60;99.90
37240;DHT22;23130;48.760;9.178;2022-11-30T15:40:50;5.70;99.90
37240;DHT22;23130;48.760;9.178;2022-11-30T15:43:23;5.70;99.90
37240;DHT22;23130;48.760;9.178;2022-11-30T15:45:57;5.70;99.90
37240;DHT22;23130;48.760;9.178;2022-11-30T15:48:28;5.70;99.90
37240;DHT22;23130;48.760;9.178;2022-11-30T15:50:54;5.60;99.90
37240;DHT22;23130;48.760;9.178;2022-11-30T15:53:27;5.60;99.90
37240;DHT22;23130;48.760;9.178;2022-11-30T15:56:03;5.60;99.90
37240;DHT22;23130;48.760;9.178;2022-11-30T16:01:05;5.60;99.90
37240;DHT22;23130;48.760;9.178;2022-11-30T16:06:44;5.60;99.90
37240;DHT22;23130;48.760;9.178;2022-11-30T16:09:29;5.60;99.90
37240;DHT22;23130;48.760;9.178;2022-11-30T16:11:59;5.60;99.90
37240;DHT22;23130;48.760;9.178;2022-11-30T16:14:26;5.60;99.90
37240;DHT22;23130;48.760;9.178;2022-11-30T16:16:52;5.50;99.90
37240;DHT22;23130;48.760;9.178;2022-11-30T16:19:20;5.50;99.90
37240;DHT22;23130;48.760;9.178;2022-11-30T16:21:47;5.60;99.90
37240;DHT22;23130;48.760;9.178;2022-11-30T16:24:13;5.50;99.90
37240;DHT22;23130;48.760;9.178;2022-11-30T16:26:39;5.50;99.90
37240;DHT22;23130;48.760;9.178;2022-11-30T16:29:05;5.60;99.90
37240;DHT22;23130;48.760;9.178;2022-11-30T16:31:31;5.60;99.90
37240;DHT22;23130;48.760;9.178;2022-11-30T16:33:56;5.50;99.90
37240;DHT22;23130;48.760;9.178;2022-11-30T16:36:22;5.60;99.90
37240;DHT22;23130;48.760;9.178;2022-11-30T16:38:49;5.60;99.90
37240;DHT22;23130;48.760;9.178;2022-11-30T16:41:21;5.60;99.90
37240;DHT22;23130;48.760;9.178;2022-11-30T16:43:49;5.60;99.90
37240;DHT22;23130;48.760;9.178;2022-11-30T16:46:20;5.60;99.90
37240;DHT22;23130;48.760;9.178;2022-11-30T16:48:46;5.60;99.90
37240;DHT22;23130;48.760;9.178;2022-11-30T16:53:43;5.60;99.90
37240;DHT22;23130;48.760;9.178;2022-11-30T16:56:12;5.50;99.90
37240;DHT22;23130;48.760;9.178;2022-11-30T16:58:38;5.50;99.90
37240;DHT22;23130;48.760;9.178;2022-11-30T17:01:06;5.50;99.90
37240;DHT22;23130;48.760;9.178;2022-11-30T17:03:35;5.50;99.90
37240;DHT22;23130;48.760;9.178;2022-11-30T17:06:01;5.50;99.90
37240;DHT22;23130;48.760;9.178;2022-11-30T17:08:27;5.50;99.90
37240;DHT22;23130;48.760;9.178;2022-11-30T17:10:53;5.50;99.90
37240;DHT22;23130;48.760;9.178;2022-11-30T17:13:19;5.50;99.90
37240;DHT22;23130;48.760;9.178;2022-11-30T17:15:45;5.40;99.90
37240;DHT22;23130;48.760;9.178;2022-11-30T17:18:11;5.40;99.90
37240;DHT22;23130;48.760;9.178;2022-11-30T17:20:37;5.40;99.90
37240;DHT22;23130;48.760;9.178;2022-11-30T17:23:04;5.40;99.90
37240;DHT22;23130;48.760;9.178;2022-11-30T17:25:30;5.50;99.90
37240;DHT22;23130;48.760;9.178;2022-11-30T17:27:56;5.50;99.90
37240;DHT22;23130;48.760;9.178;2022-11-30T17:30:22;5.60;99.90
37240;DHT22;23130;48.760;9.178;2022-11-30T17:32:48;5.60;99.90
37240;DHT22;23130;48.760;9.178;2022-11-30T17:35:18;5.60;99.90
37240;DHT22;23130;48.760;9.178;2022-11-30T17:37:44;5.60;99.90
37240;DHT22;23130;48.760;9.178;2022-11-30T17:40:10;5.60;99.90
37240;DHT22;23130;48.760;9.178;2022-11-30T17:42:41;5.60;99.90
37240;DHT22;23130;48.760;9.178;2022-11-30T17:45:07;5.60;99.90
37240;DHT22;23130;48.760;9.178;2022-11-30T17:47:32;5.70;99.90
37240;DHT22;23130;48.760;9.178;2022-11-30T17:49:58;5.70;99.90
37240;DHT22;23130;48.760;9.178;2022-11-30T17:52:24;5.70;99.90
37240;DHT22;23130;48.760;9.178;2022-11-30T17:54:49;5.70;99.90
37240;DHT22;23130;48.760;9.178;2022-11-30T17:57:15;5.70;99.90
37240;DHT22;23130;48.760;9.178;2022-11-30T17:59:40;5.70;99.90
37240;DHT22;23130;48.760;9.178;2022-11-30T18:02:09;5.70;99.90
37240;DHT22;23130;48.760;9.178;2022-11-30T18:04:35;5.70;99.90
37240;DHT22;23130;48.760;9.178;2022-11-30T18:07:00;5.60;99.90
37240;DHT22;23130;48.760;9.178;2022-11-30T18:09:26;5.70;99.90
37240;DHT22;23130;48.760;9.178;2022-11-30T18:11:52;5.70;99.90
37240;DHT22;23130;48.760;9.178;2022-11-30T18:14:17;5.60;99.90
37240;DHT22;23130;48.760;9.178;2022-11-30T18:16:43;5.60;99.90
37240;DHT22;23130;48.760;9.178;2022-11-30T18:19:09;5.60;99.90